Weather at Menara Airport

Public forecast

Using degrees Celsius for public forecast. Weather courtesy of forecast.io.

Current aviation weather report (METAR) for Menara Airport

Retrieved 2020/11/27 03:30 UTC (1 hour ago):

GMMX 270330Z VRB02KT 9999 BKN020 SCT086 09/06 Q1007 NOSIG

Aviation forecast (TAF) for Menara Airport

Retrieved 2020-11-27 00:51 UTC (4 hours ago):

TAF GMMX 262300Z 2700/2806 24006KT 8000 SCT020 BKN080 PROB30 TEMPO 2714/2722 34016KT 5000 RA